Finlandia — OJPP — position and weather

sailwx.info

Track history (hours):
 
Tides and Currents Weather Stations Pressure Air Temp Water Temp Dewpoint Dewpoint Depression Visibility Wind Speed Wind Dir Waves Ship Positions

Finlandia

Last reported at 2014-Sep-01 10:32 UTC. Time now 2014-Sep-01 11:26 UTC.
Position N 59°56' E 024°54'.

Length 175 m; draft 7 m.

Type: Passenger vessel. MMSI: 230628000.

Date/timePositionNaut miles runAvg speedWind from/ knotsBaromVisibWave heightAir tempDewpointWater temp
2014-Sep-01 10:32N 59°56' E 024°54'2020.2
2014-Sep-01 09:33N 59°37' E 024°42'6 3.1
2014-Sep-01 07:30N 59°31' E 024°44'2719.4
2014-Sep-01 06:08N 59°57' E 024°53'1118.3
2014-Sep-01 05:33N 60°08' E 024°54'2 1.7
2014-Sep-01 04:32N 60°09' E 024°55'0 0.0
2014-Sep-01 03:32N 60°09' E 024°55'0 0.0
2014-Sep-01 02:32N 60°09' E 024°55'0 0.0
2014-Sep-01 01:32N 60°09' E 024°55'0 0.0
2014-Sep-01 00:29N 60°09' E 024°55'0 0.0
2014-Aug-31 23:23N 60°09' E 024°55'0 0.0
2014-Aug-31 22:20N 60°09' E 024°55'0 0.0
2014-Aug-31 21:26N 60°09' E 024°55'0 0.0
2014-Aug-31 20:32N 60°09' E 024°55'0 0.0
2014-Aug-31 19:32N 60°09' E 024°55'1 0.7
2014-Aug-31 18:33N 60°09' E 024°55'2321.3
2014-Aug-31 17:27N 59°45' E 024°49'1920.6
2014-Aug-31 16:33N 59°27' E 024°46'0 0.3
2014-Aug-31 15:30N 59°27' E 024°46'1111.7
2014-Aug-31 14:33N 59°37' E 024°40'2217.2
2014-Aug-31 13:17N 59°58' E 024°54'1115.0
2014-Aug-31 12:33N 60°09' E 024°55'0 0.4
2014-Aug-31 11:31N 60°09' E 024°55'3216.5
2014-Aug-31 09:34N 59°38' E 024°41'1110.7
2014-Aug-31 08:31N 59°27' E 024°46'3 3.0
2014-Aug-31 07:33N 59°30' E 024°45'2019.6
2014-Aug-31 06:33N 59°49' E 024°49'2019.7
2014-Aug-31 05:33N 60°09' E 024°54'1 0.8
2014-Aug-31 04:32N 60°09' E 024°55'0 0.0
2014-Aug-31 03:32N 60°09' E 024°55'0 0.0
2014-Aug-31 02:29N 60°09' E 024°55'0 0.0
2014-Aug-31 01:23N 60°09' E 024°55'0 0.0
2014-Aug-31 00:26N 60°09' E 024°55'0 0.0
2014-Aug-30 23:29N 60°09' E 024°55'0 0.0
2014-Aug-30 22:29N 60°09' E 024°55'0 0.0
2014-Aug-30 21:23N 60°09' E 024°55'0 0.0
2014-Aug-30 20:29N 60°09' E 024°55'0 0.0
2014-Aug-30 19:29N 60°09' E 024°55'0 0.4
2014-Aug-30 18:31N 60°09' E 024°55'2320.9
2014-Aug-30 17:26N 59°46' E 024°48'1921.8
2014-Aug-30 16:33N 59°27' E 024°47'1 0.6
2014-Aug-30 15:30N 59°27' E 024°46'1111.4
2014-Aug-30 14:34N 59°37' E 024°40'2216.6
2014-Aug-30 13:14N 59°58' E 024°53'1115.9
2014-Aug-30 12:33N 60°09' E 024°54'1 0.7
2014-Aug-30 11:33N 60°09' E 024°55'2114.7
2014-Aug-30 10:07N 59°48' E 024°49'1220.8
2014-Aug-30 09:33N 59°37' E 024°42'1110.4
2014-Aug-30 08:31N 59°27' E 024°46'6 6.3
2014-Aug-30 07:34N 59°33' E 024°42'2620.0
2014-Aug-30 06:15N 59°58' E 024°54'1115.8
2014-Aug-30 05:33N 60°09' E 024°55'0 0.2
2014-Aug-30 04:32N 60°09' E 024°55'0 0.0
2014-Aug-30 03:32N 60°09' E 024°55'0 0.0
2014-Aug-30 02:32N 60°09' E 024°55'0 0.0
2014-Aug-30 01:32N 60°09' E 024°55'0 0.0
2014-Aug-30 00:26N 60°09' E 024°55'0 0.0
2014-Aug-29 23:26N 60°09' E 024°55'0 0.0
2014-Aug-29 22:20N 60°09' E 024°55'0 0.0
2014-Aug-29 20:32N 60°09' E 024°55'0 0.0
2014-Aug-29 19:23N 60°09' E 024°55'0 0.5
2014-Aug-29 18:28N 60°09' E 024°55'2220.7
2014-Aug-29 17:26N 59°48' E 024°46'2023.0
2014-Aug-29 16:33N 59°28' E 024°47'1 0.8
2014-Aug-29 15:28N 59°27' E 024°46'1212.7
2014-Aug-29 14:33N 59°38' E 024°40'2117.4
2014-Aug-29 13:21N 59°58' E 024°54'1114.2
2014-Aug-29 12:34N 60°09' E 024°55'0 0.1
2014-Aug-29 11:33N 60°09' E 024°55'1514.9
2014-Aug-29 10:33N 59°54' E 024°53'2020.4
2014-Aug-29 09:33N 59°35' E 024°42'8 8.0
2014-Aug-29 08:32N 59°27' E 024°46'5 5.3
2014-Aug-29 07:34N 59°32' E 024°43'2720.0
2014-Aug-29 06:13N 59°58' E 024°54'1116.2
2014-Aug-29 05:34N 60°09' E 024°55'0 0.4
2014-Aug-29 04:31N 60°09' E 024°55'0 0.0
2014-Aug-29 03:31N 60°09' E 024°55'0 0.0
2014-Aug-29 02:28N 60°09' E 024°55'0 0.0
2014-Aug-29 01:22N 60°09' E 024°55'0 0.0
2014-Aug-29 00:25N 60°09' E 024°55'0 0.0
2014-Aug-28 23:28N 60°09' E 024°55'0 0.0
2014-Aug-28 22:31N 60°09' E 024°55'0 0.0
2014-Aug-28 21:31N 60°09' E 024°55'0 0.0
2014-Aug-28 20:31N 60°09' E 024°55'0 0.0
2014-Aug-28 19:31N 60°09' E 024°55'0 0.3
2014-Aug-28 18:34N 60°09' E 024°55'2420.9
2014-Aug-28 17:25N 59°45' E 024°47'1921.6
2014-Aug-28 16:34N 59°27' E 024°46'0 0.4
2014-Aug-28 15:33N 59°27' E 024°46'1211.7
2014-Aug-28 14:34N 59°38' E 024°40'2016.6
2014-Aug-28 13:20N 59°57' E 024°53'1115.0
2014-Aug-28 12:34N 60°09' E 024°55'1 0.5
2014-Aug-28 11:31N 60°09' E 024°55'3316.6
2014-Aug-28 09:33N 59°37' E 024°42'1110.5
2014-Aug-28 08:32N 59°27' E 024°46'3 3.0
2014-Aug-28 07:34N 59°30' E 024°45'1919.0
2014-Aug-28 06:33N 59°49' E 024°49'2019.7
2014-Aug-28 05:33N 60°08' E 024°54'1 1.2
2014-Aug-28 04:33N 60°09' E 024°55'0 0.0
2014-Aug-28 03:33N 60°09' E 024°55'0 0.0
2014-Aug-28 02:30N 60°09' E 024°55'0 0.0
2014-Aug-28 01:33N 60°09' E 024°55'0 0.0
2014-Aug-28 00:33N 60°09' E 024°55'0 0.0
2014-Aug-27 23:30N 60°09' E 024°55'0 0.0
2014-Aug-27 22:33N 60°09' E 024°55'0 0.0
2014-Aug-27 21:33N 60°09' E 024°55'0 0.0
2014-Aug-27 20:33N 60°09' E 024°55'0 0.0
2014-Aug-27 19:33N 60°09' E 024°55'1 0.8
2014-Aug-27 18:33N 60°09' E 024°54'2221.7
2014-Aug-27 17:33N 59°47' E 024°50'2020.1
2014-Aug-27 16:33N 59°27' E 024°46'0 0.2
2014-Aug-27 15:26N 59°27' E 024°46'1112.0
2014-Aug-27 14:33N 59°37' E 024°40'2316.7
2014-Aug-27 13:13N 59°58' E 024°54'1016.1
2014-Aug-27 12:34N 60°09' E 024°54'1 0.6
2014-Aug-27 11:32N 60°09' E 024°55'2115.7
2014-Aug-27 10:12N 59°49' E 024°46'1321.0
2014-Aug-27 09:33N 59°36' E 024°41'9 9.0
2014-Aug-27 08:32N 59°27' E 024°46'5 5.1
2014-Aug-27 07:34N 59°32' E 024°43'2720.2
2014-Aug-27 06:13N 59°58' E 024°54'1116.2
2014-Aug-27 05:33N 60°09' E 024°55'0 0.4
2014-Aug-27 04:31N 60°09' E 024°55'0 0.0
2014-Aug-27 03:31N 60°09' E 024°55'0 0.0
2014-Aug-27 02:31N 60°09' E 024°55'0 0.0
2014-Aug-27 01:25N 60°09' E 024°55'0 0.0
2014-Aug-27 00:31N 60°09' E 024°55'0 0.0
2014-Aug-26 23:25N 60°09' E 024°55'0 0.0
2014-Aug-26 22:31N 60°09' E 024°55'0 0.0
2014-Aug-26 21:28N 60°09' E 024°55'0 0.0
2014-Aug-26 19:22N 60°09' E 024°55'1 0.9
2014-Aug-26 18:33N 60°09' E 024°55'2421.0
2014-Aug-26 17:26N 59°45' E 024°47'1821.1
2014-Aug-26 16:34N 59°27' E 024°46'0 0.3
2014-Aug-26 15:31N 59°27' E 024°46'1111.1
2014-Aug-26 14:34N 59°37' E 024°40'2217.4
2014-Aug-26 13:17N 59°58' E 024°54'1115.0
2014-Aug-26 12:34N 60°09' E 024°55'0 0.5
2014-Aug-26 11:33N 60°09' E 024°55'3417.3
2014-Aug-26 09:33N 59°36' E 024°41'9 8.8
2014-Aug-26 08:31N 59°27' E 024°46'4 3.8
2014-Aug-26 07:34N 59°30' E 024°44'2919.8
2014-Aug-26 06:07N 59°58' E 024°54'1018.2
2014-Aug-26 05:33N 60°09' E 024°54'1 0.7
2014-Aug-26 04:31N 60°09' E 024°55'0 0.0
2014-Aug-26 03:31N 60°09' E 024°55'0 0.0
2014-Aug-26 02:25N 60°09' E 024°55'0 0.0
2014-Aug-26 01:31N 60°09' E 024°55'0 0.0
2014-Aug-26 00:28N 60°09' E 024°55'0 0.0
2014-Aug-25 23:31N 60°09' E 024°55'0 0.0
2014-Aug-25 22:16N 60°09' E 024°55'0 0.0
2014-Aug-25 21:31N 60°09' E 024°55'0 0.0
2014-Aug-25 20:19N 60°09' E 024°55'0 0.0
2014-Aug-25 19:28N 60°09' E 024°55'1 0.8
2014-Aug-25 18:33N 60°09' E 024°55'2422.3
2014-Aug-25 17:29N 59°45' E 024°48'1819.8
2014-Aug-25 16:33N 59°27' E 024°46'0 0.1
2014-Aug-25 15:33N 59°27' E 024°46'1211.2
2014-Aug-25 14:30N 59°38' E 024°40'2116.6
2014-Aug-25 13:14N 59°58' E 024°53'1115.8
2014-Aug-25 12:33N 60°09' E 024°55'1 0.6
2014-Aug-25 11:32N 60°09' E 024°55'2416.2
2014-Aug-25 10:04N 59°46' E 024°49'1121.2
2014-Aug-25 09:32N 59°35' E 024°42'4 2.1
2014-Aug-25 07:30N 59°31' E 024°44'2819.9
2014-Aug-25 06:05N 59°58' E 024°54'1018.7
2014-Aug-25 05:34N 60°08' E 024°54'1 1.1
2014-Aug-25 04:31N 60°09' E 024°55'0 0.0
2014-Aug-25 03:31N 60°09' E 024°55'0 0.0
2014-Aug-25 02:25N 60°09' E 024°55'0 0.0
2014-Aug-25 01:22N 60°09' E 024°55'0 0.0
2014-Aug-25 00:31N 60°09' E 024°55'0 0.0
2014-Aug-24 23:31N 60°09' E 024°55'0 0.0
2014-Aug-24 22:25N 60°09' E 024°55'0 0.0
2014-Aug-24 21:28N 60°09' E 024°55'0 0.0
2014-Aug-24 20:25N 60°09' E 024°55'0 0.0
2014-Aug-24 19:25N 60°09' E 024°55'1 1.2
2014-Aug-24 18:33N 60°08' E 024°54'2421.0
2014-Aug-24 17:26N 59°45' E 024°48'1820.6
2014-Aug-24 16:33N 59°27' E 024°46'0 0.3
2014-Aug-24 15:30N 59°27' E 024°46'1111.6
2014-Aug-24 14:34N 59°37' E 024°40'2016.9
2014-Aug-24 13:21N 59°57' E 024°53'1215.6
2014-Aug-24 12:34N 60°09' E 024°55'0 0.5
2014-Aug-24 11:34N 60°09' E 024°55'3617.7
2014-Aug-24 09:33N 59°34' E 024°42'8 7.2
2014-Aug-24 08:28N 59°27' E 024°46'2 2.2
2014-Aug-24 07:32N 59°29' E 024°46'3919.7
2014-Aug-24 05:33N 60°08' E 024°54'2 1.6
2014-Aug-24 04:31N 60°09' E 024°55'0 0.0
2014-Aug-24 03:31N 60°09' E 024°55'0 0.0
2014-Aug-24 02:31N 60°09' E 024°55'0 0.0
2014-Aug-24 01:07N 60°09' E 024°55'0 0.0
2014-Aug-23 23:25N 60°09' E 024°55'0 0.0
2014-Aug-23 22:31N 60°09' E 024°55'0 0.0
2014-Aug-23 21:31N 60°09' E 024°55'0 0.0
2014-Aug-23 20:31N 60°09' E 024°55'0 0.0
2014-Aug-23 19:28N 60°09' E 024°55'0 0.0
2014-Aug-23 03:32N 60°09' E 024°55'0 0.0
2014-Aug-23 02:26N 60°09' E 024°55'0 0.0
2014-Aug-23 01:32N 60°09' E 024°55'0 0.0
2014-Aug-23 00:32N 60°09' E 024°55'0 0.0
2014-Aug-22 23:23N 60°09' E 024°55'0 0.0
2014-Aug-22 22:32N 60°09' E 024°55'0 0.0
2014-Aug-22 21:23N 60°09' E 024°55'0 0.0
2014-Aug-22 20:26N 60°09' E 024°55'0 0.0
2014-Aug-22 19:33N 60°09' E 024°55'0 0.4
2014-Aug-22 18:33N 60°09' E 024°55'2220.2
2014-Aug-22 17:29N 59°48' E 024°49'2021.6
2014-Aug-22 16:33N 59°28' E 024°47'1 1.0
2014-Aug-22 15:33N 59°27' E 024°46'1110.7
2014-Aug-22 14:34N 59°37' E 024°40'2217.0
2014-Aug-22 13:14N 59°58' E 024°54'1115.7
2014-Aug-22 12:33N 60°09' E 024°55'1 0.6
2014-Aug-22 11:31N 60°09' E 024°55'1010.4
2014-Aug-22 10:33N 59°59' E 024°54'  
Track history (hours):
 
Tides and Currents Weather Stations Pressure Air Temp Water Temp Dewpoint Dewpoint Depression Visibility Wind Speed Wind Dir Waves Ship Positions

Finlandia

Last reported at 2014-Sep-01 10:32 UTC. Time now 2014-Sep-01 11:27 UTC.
Position N 59°56' E 024°54'.

Length 175 m; draft 7 m.

Type: Passenger vessel. MMSI: 230628000.

Date/timePositionNaut miles runAvg speedWind from/ knotsBaromVisibWave heightAir tempDewpointWater temp
2014-Sep-01 10:32N 59°56' E 024°54'2020.2
2014-Sep-01 09:33N 59°37' E 024°42'6 3.1
2014-Sep-01 07:30N 59°31' E 024°44'2719.4
2014-Sep-01 06:08N 59°57' E 024°53'1118.3
2014-Sep-01 05:33N 60°08' E 024°54'2 1.7
2014-Sep-01 04:32N 60°09' E 024°55'0 0.0
2014-Sep-01 03:32N 60°09' E 024°55'0 0.0
2014-Sep-01 02:32N 60°09' E 024°55'0 0.0
2014-Sep-01 01:32N 60°09' E 024°55'0 0.0
2014-Sep-01 00:29N 60°09' E 024°55'0 0.0
2014-Aug-31 23:23N 60°09' E 024°55'0 0.0
2014-Aug-31 22:20N 60°09' E 024°55'0 0.0
2014-Aug-31 21:26N 60°09' E 024°55'0 0.0
2014-Aug-31 20:32N 60°09' E 024°55'0 0.0
2014-Aug-31 19:32N 60°09' E 024°55'1 0.7
2014-Aug-31 18:33N 60°09' E 024°55'2321.3
2014-Aug-31 17:27N 59°45' E 024°49'1920.6
2014-Aug-31 16:33N 59°27' E 024°46'0 0.3
2014-Aug-31 15:30N 59°27' E 024°46'1111.7
2014-Aug-31 14:33N 59°37' E 024°40'2217.2
2014-Aug-31 13:17N 59°58' E 024°54'1115.0
2014-Aug-31 12:33N 60°09' E 024°55'0 0.4
2014-Aug-31 11:31N 60°09' E 024°55'3216.5
2014-Aug-31 09:34N 59°38' E 024°41'1110.7
2014-Aug-31 08:31N 59°27' E 024°46'3 3.0
2014-Aug-31 07:33N 59°30' E 024°45'2019.6
2014-Aug-31 06:33N 59°49' E 024°49'2019.7
2014-Aug-31 05:33N 60°09' E 024°54'1 0.8
2014-Aug-31 04:32N 60°09' E 024°55'0 0.0
2014-Aug-31 03:32N 60°09' E 024°55'0 0.0
2014-Aug-31 02:29N 60°09' E 024°55'0 0.0
2014-Aug-31 01:23N 60°09' E 024°55'0 0.0
2014-Aug-31 00:26N 60°09' E 024°55'0 0.0
2014-Aug-30 23:29N 60°09' E 024°55'0 0.0
2014-Aug-30 22:29N 60°09' E 024°55'0 0.0
2014-Aug-30 21:23N 60°09' E 024°55'0 0.0
2014-Aug-30 20:29N 60°09' E 024°55'0 0.0
2014-Aug-30 19:29N 60°09' E 024°55'0 0.4
2014-Aug-30 18:31N 60°09' E 024°55'2320.9
2014-Aug-30 17:26N 59°46' E 024°48'1921.8
2014-Aug-30 16:33N 59°27' E 024°47'1 0.6
2014-Aug-30 15:30N 59°27' E 024°46'1111.4
2014-Aug-30 14:34N 59°37' E 024°40'2216.6
2014-Aug-30 13:14N 59°58' E 024°53'1115.9
2014-Aug-30 12:33N 60°09' E 024°54'1 0.7
2014-Aug-30 11:33N 60°09' E 024°55'2114.7
2014-Aug-30 10:07N 59°48' E 024°49'1220.8
2014-Aug-30 09:33N 59°37' E 024°42'1110.4
2014-Aug-30 08:31N 59°27' E 024°46'6 6.3
2014-Aug-30 07:34N 59°33' E 024°42'2620.0
2014-Aug-30 06:15N 59°58' E 024°54'1115.8
2014-Aug-30 05:33N 60°09' E 024°55'0 0.2
2014-Aug-30 04:32N 60°09' E 024°55'0 0.0
2014-Aug-30 03:32N 60°09' E 024°55'0 0.0
2014-Aug-30 02:32N 60°09' E 024°55'0 0.0
2014-Aug-30 01:32N 60°09' E 024°55'0 0.0
2014-Aug-30 00:26N 60°09' E 024°55'0 0.0
2014-Aug-29 23:26N 60°09' E 024°55'0 0.0
2014-Aug-29 22:20N 60°09' E 024°55'0 0.0
2014-Aug-29 20:32N 60°09' E 024°55'0 0.0
2014-Aug-29 19:23N 60°09' E 024°55'0 0.5
2014-Aug-29 18:28N 60°09' E 024°55'2220.7
2014-Aug-29 17:26N 59°48' E 024°46'2023.0
2014-Aug-29 16:33N 59°28' E 024°47'1 0.8
2014-Aug-29 15:28N 59°27' E 024°46'1212.7
2014-Aug-29 14:33N 59°38' E 024°40'2117.4
2014-Aug-29 13:21N 59°58' E 024°54'1114.2
2014-Aug-29 12:34N 60°09' E 024°55'0 0.1
2014-Aug-29 11:33N 60°09' E 024°55'1514.9
2014-Aug-29 10:33N 59°54' E 024°53'2020.4
2014-Aug-29 09:33N 59°35' E 024°42'8 8.0
2014-Aug-29 08:32N 59°27' E 024°46'5 5.3
2014-Aug-29 07:34N 59°32' E 024°43'2720.0
2014-Aug-29 06:13N 59°58' E 024°54'1116.2
2014-Aug-29 05:34N 60°09' E 024°55'0 0.4
2014-Aug-29 04:31N 60°09' E 024°55'0 0.0
2014-Aug-29 03:31N 60°09' E 024°55'0 0.0
2014-Aug-29 02:28N 60°09' E 024°55'0 0.0
2014-Aug-29 01:22N 60°09' E 024°55'0 0.0
2014-Aug-29 00:25N 60°09' E 024°55'0 0.0
2014-Aug-28 23:28N 60°09' E 024°55'0 0.0
2014-Aug-28 22:31N 60°09' E 024°55'0 0.0
2014-Aug-28 21:31N 60°09' E 024°55'0 0.0
2014-Aug-28 20:31N 60°09' E 024°55'0 0.0
2014-Aug-28 19:31N 60°09' E 024°55'0 0.3
2014-Aug-28 18:34N 60°09' E 024°55'2420.9
2014-Aug-28 17:25N 59°45' E 024°47'1921.6
2014-Aug-28 16:34N 59°27' E 024°46'0 0.4
2014-Aug-28 15:33N 59°27' E 024°46'1211.7
2014-Aug-28 14:34N 59°38' E 024°40'2016.6
2014-Aug-28 13:20N 59°57' E 024°53'1115.0
2014-Aug-28 12:34N 60°09' E 024°55'1 0.5
2014-Aug-28 11:31N 60°09' E 024°55'3316.6
2014-Aug-28 09:33N 59°37' E 024°42'1110.5
2014-Aug-28 08:32N 59°27' E 024°46'3 3.0
2014-Aug-28 07:34N 59°30' E 024°45'1919.0
2014-Aug-28 06:33N 59°49' E 024°49'2019.7
2014-Aug-28 05:33N 60°08' E 024°54'1 1.2
2014-Aug-28 04:33N 60°09' E 024°55'0 0.0
2014-Aug-28 03:33N 60°09' E 024°55'0 0.0
2014-Aug-28 02:30N 60°09' E 024°55'0 0.0
2014-Aug-28 01:33N 60°09' E 024°55'0 0.0
2014-Aug-28 00:33N 60°09' E 024°55'0 0.0
2014-Aug-27 23:30N 60°09' E 024°55'0 0.0
2014-Aug-27 22:33N 60°09' E 024°55'0 0.0
2014-Aug-27 21:33N 60°09' E 024°55'0 0.0
2014-Aug-27 20:33N 60°09' E 024°55'0 0.0
2014-Aug-27 19:33N 60°09' E 024°55'1 0.8
2014-Aug-27 18:33N 60°09' E 024°54'2221.7
2014-Aug-27 17:33N 59°47' E 024°50'2020.1
2014-Aug-27 16:33N 59°27' E 024°46'0 0.2
2014-Aug-27 15:26N 59°27' E 024°46'1112.0
2014-Aug-27 14:33N 59°37' E 024°40'2316.7
2014-Aug-27 13:13N 59°58' E 024°54'1016.1
2014-Aug-27 12:34N 60°09' E 024°54'1 0.6
2014-Aug-27 11:32N 60°09' E 024°55'2115.7
2014-Aug-27 10:12N 59°49' E 024°46'1321.0
2014-Aug-27 09:33N 59°36' E 024°41'9 9.0
2014-Aug-27 08:32N 59°27' E 024°46'5 5.1
2014-Aug-27 07:34N 59°32' E 024°43'2720.2
2014-Aug-27 06:13N 59°58' E 024°54'1116.2
2014-Aug-27 05:33N 60°09' E 024°55'0 0.4
2014-Aug-27 04:31N 60°09' E 024°55'0 0.0
2014-Aug-27 03:31N 60°09' E 024°55'0 0.0
2014-Aug-27 02:31N 60°09' E 024°55'0 0.0
2014-Aug-27 01:25N 60°09' E 024°55'0 0.0
2014-Aug-27 00:31N 60°09' E 024°55'0 0.0
2014-Aug-26 23:25N 60°09' E 024°55'0 0.0
2014-Aug-26 22:31N 60°09' E 024°55'0 0.0
2014-Aug-26 21:28N 60°09' E 024°55'0 0.0
2014-Aug-26 19:22N 60°09' E 024°55'1 0.9
2014-Aug-26 18:33N 60°09' E 024°55'2421.0
2014-Aug-26 17:26N 59°45' E 024°47'1821.1
2014-Aug-26 16:34N 59°27' E 024°46'0 0.3
2014-Aug-26 15:31N 59°27' E 024°46'1111.1
2014-Aug-26 14:34N 59°37' E 024°40'2217.4
2014-Aug-26 13:17N 59°58' E 024°54'1115.0
2014-Aug-26 12:34N 60°09' E 024°55'0 0.5
2014-Aug-26 11:33N 60°09' E 024°55'3417.3
2014-Aug-26 09:33N 59°36' E 024°41'9 8.8
2014-Aug-26 08:31N 59°27' E 024°46'4 3.8
2014-Aug-26 07:34N 59°30' E 024°44'2919.8
2014-Aug-26 06:07N 59°58' E 024°54'1018.2
2014-Aug-26 05:33N 60°09' E 024°54'1 0.7
2014-Aug-26 04:31N 60°09' E 024°55'0 0.0
2014-Aug-26 03:31N 60°09' E 024°55'0 0.0
2014-Aug-26 02:25N 60°09' E 024°55'0 0.0
2014-Aug-26 01:31N 60°09' E 024°55'0 0.0
2014-Aug-26 00:28N 60°09' E 024°55'0 0.0
2014-Aug-25 23:31N 60°09' E 024°55'0 0.0
2014-Aug-25 22:16N 60°09' E 024°55'0 0.0
2014-Aug-25 21:31N 60°09' E 024°55'0 0.0
2014-Aug-25 20:19N 60°09' E 024°55'0 0.0
2014-Aug-25 19:28N 60°09' E 024°55'1 0.8
2014-Aug-25 18:33N 60°09' E 024°55'2422.3
2014-Aug-25 17:29N 59°45' E 024°48'1819.8
2014-Aug-25 16:33N 59°27' E 024°46'0 0.1
2014-Aug-25 15:33N 59°27' E 024°46'1211.2
2014-Aug-25 14:30N 59°38' E 024°40'2116.6
2014-Aug-25 13:14N 59°58' E 024°53'1115.8
2014-Aug-25 12:33N 60°09' E 024°55'1 0.6
2014-Aug-25 11:32N 60°09' E 024°55'2416.2
2014-Aug-25 10:04N 59°46' E 024°49'1121.2
2014-Aug-25 09:32N 59°35' E 024°42'4 2.1
2014-Aug-25 07:30N 59°31' E 024°44'2819.9
2014-Aug-25 06:05N 59°58' E 024°54'1018.7
2014-Aug-25 05:34N 60°08' E 024°54'1 1.1
2014-Aug-25 04:31N 60°09' E 024°55'0 0.0
2014-Aug-25 03:31N 60°09' E 024°55'0 0.0
2014-Aug-25 02:25N 60°09' E 024°55'0 0.0
2014-Aug-25 01:22N 60°09' E 024°55'0 0.0
2014-Aug-25 00:31N 60°09' E 024°55'0 0.0
2014-Aug-24 23:31N 60°09' E 024°55'0 0.0
2014-Aug-24 22:25N 60°09' E 024°55'0 0.0
2014-Aug-24 21:28N 60°09' E 024°55'0 0.0
2014-Aug-24 20:25N 60°09' E 024°55'0 0.0
2014-Aug-24 19:25N 60°09' E 024°55'1 1.2
2014-Aug-24 18:33N 60°08' E 024°54'2421.0
2014-Aug-24 17:26N 59°45' E 024°48'1820.6
2014-Aug-24 16:33N 59°27' E 024°46'0 0.3
2014-Aug-24 15:30N 59°27' E 024°46'1111.6
2014-Aug-24 14:34N 59°37' E 024°40'2016.9
2014-Aug-24 13:21N 59°57' E 024°53'1215.6
2014-Aug-24 12:34N 60°09' E 024°55'0 0.5
2014-Aug-24 11:34N 60°09' E 024°55'3617.7
2014-Aug-24 09:33N 59°34' E 024°42'8 7.2
2014-Aug-24 08:28N 59°27' E 024°46'2 2.2
2014-Aug-24 07:32N 59°29' E 024°46'3919.7
2014-Aug-24 05:33N 60°08' E 024°54'2 1.6
2014-Aug-24 04:31N 60°09' E 024°55'0 0.0
2014-Aug-24 03:31N 60°09' E 024°55'0 0.0
2014-Aug-24 02:31N 60°09' E 024°55'0 0.0
2014-Aug-24 01:07N 60°09' E 024°55'0 0.0
2014-Aug-23 23:25N 60°09' E 024°55'0 0.0
2014-Aug-23 22:31N 60°09' E 024°55'0 0.0
2014-Aug-23 21:31N 60°09' E 024°55'0 0.0
2014-Aug-23 20:31N 60°09' E 024°55'0 0.0
2014-Aug-23 19:28N 60°09' E 024°55'0 0.0
2014-Aug-23 03:32N 60°09' E 024°55'0 0.0
2014-Aug-23 02:26N 60°09' E 024°55'0 0.0
2014-Aug-23 01:32N 60°09' E 024°55'0 0.0
2014-Aug-23 00:32N 60°09' E 024°55'0 0.0
2014-Aug-22 23:23N 60°09' E 024°55'0 0.0
2014-Aug-22 22:32N 60°09' E 024°55'0 0.0
2014-Aug-22 21:23N 60°09' E 024°55'0 0.0
2014-Aug-22 20:26N 60°09' E 024°55'0 0.0
2014-Aug-22 19:33N 60°09' E 024°55'0 0.4
2014-Aug-22 18:33N 60°09' E 024°55'2220.2
2014-Aug-22 17:29N 59°48' E 024°49'2021.6
2014-Aug-22 16:33N 59°28' E 024°47'1 1.0
2014-Aug-22 15:33N 59°27' E 024°46'1110.7
2014-Aug-22 14:34N 59°37' E 024°40'2217.0
2014-Aug-22 13:14N 59°58' E 024°54'1115.7
2014-Aug-22 12:33N 60°09' E 024°55'1 0.6
2014-Aug-22 11:31N 60°09' E 024°55'1010.4
2014-Aug-22 10:33N 59°59' E 024°54'  

Dump ship's entire track history